Details for Jet2 at EGNX




Go Back


Latest METAR
Local Time

EGNX 160920Z 23012KT 9999 BKN010 16/15 Q1010
16/08/2018, 10:48:56

Description
Results
Jet2 Logo
Number of Pilots based at EGNX
1 Pilots Based here
Number of Jet2 Flights Departed from EGNX
1 Flights Departed
Number of Jet2 Flights Arrived at EGNX
1 Flights Arrived
Number of Jet2 Schedules Departing from EGNX
53 Schedules
Number of Jet2 Schedules Arriving at EGNX
51 Schedules
Number of Jet2 Schedules Departing from EGNX availible today
11 Schedules Today
Number of Jet2 Schedules Arriving at EGNX availible today
11 Schedules Today
Average Landing Rate at EGNX
-204 fpm
Jet2 Average Landing Rate at EGNX
-85 fpm
Total Fuel Purchased at EGNX by Jet2
10,016.68 kgs / 22,082.77 lbs

Pilots Based at EGNX


Pilot ID
Pilot Name
Pilot Rank
No. of Flights
No. of Flying Hours
Stephen Whyles
133
265.16
Content